Suraya Y — 9LD2366 — position and weather

sailwx.info

Track history (hours):
 
Tides and Currents Weather Stations Pressure Air Temp Water Temp Dewpoint Dewpoint Depression Visibility Wind Speed Wind Dir Waves Ship Positions

Suraya Y

Last reported at 2014-Oct-21 12:15 UTC. Time now 2014-Oct-23 05:50 UTC.
Position N 46°36' E 031°30'.

; draft 9.1 m.

Type: Cargo ship. MMSI: 667005066.

Date/timePositionNaut miles runAvg speedWind from/ knotsBaromVisibWave heightAir tempDewpointWater temp
2014-Oct-21 12:15N 46°36' E 031°30'10 9.2
2014-Oct-21 11:09N 46°36' E 031°44'6 9.8
2014-Oct-21 10:31N 46°37' E 031°53'8 8.3
2014-Oct-21 09:33N 46°45' E 031°54'5 5.1
2014-Oct-21 08:33N 46°50' E 031°57'0 0.0
2014-Oct-21 07:33N 46°50' E 031°57'0 0.0
2014-Oct-21 06:33N 46°50' E 031°57'0 0.0
2014-Oct-21 05:33N 46°50' E 031°57'0 0.0
2014-Oct-21 04:33N 46°50' E 031°57'0 0.0
2014-Oct-21 03:33N 46°50' E 031°57'0 0.0
2014-Oct-21 02:33N 46°50' E 031°57'0 0.0
2014-Oct-21 01:33N 46°50' E 031°57'0 0.0
2014-Oct-21 00:33N 46°50' E 031°57'0 0.0
2014-Oct-20 23:30N 46°50' E 031°57'0 0.0
2014-Oct-20 22:33N 46°50' E 031°57'0 0.0
2014-Oct-20 21:33N 46°50' E 031°57'0 0.0
2014-Oct-20 20:33N 46°50' E 031°57'0 0.0
2014-Oct-20 19:33N 46°50' E 031°57'0 0.0
2014-Oct-20 18:30N 46°50' E 031°57'0 0.0
2014-Oct-20 17:33N 46°50' E 031°57'0 0.0
2014-Oct-20 16:33N 46°50' E 031°57'0 0.0
2014-Oct-20 15:33N 46°50' E 031°57'0 0.0
2014-Oct-20 14:33N 46°50' E 031°57'0 0.0
2014-Oct-20 13:30N 46°50' E 031°57'0 0.0
2014-Oct-20 12:33N 46°50' E 031°57'0 0.0
2014-Oct-20 11:33N 46°50' E 031°57'0 0.0
2014-Oct-20 10:33N 46°50' E 031°57'0 0.0
2014-Oct-20 09:33N 46°50' E 031°57'0 0.0
2014-Oct-20 08:27N 46°50' E 031°57'0 0.0
2014-Oct-20 07:30N 46°50' E 031°57'0 0.0
2014-Oct-20 06:33N 46°50' E 031°57'0 0.0
2014-Oct-20 05:30N 46°50' E 031°57'0 0.0
2014-Oct-20 04:33N 46°50' E 031°57'0 0.0
2014-Oct-20 03:33N 46°50' E 031°57'0 0.0
2014-Oct-20 02:33N 46°50' E 031°57'0 0.0
2014-Oct-20 01:27N 46°50' E 031°57'0 0.0
2014-Oct-20 00:33N 46°50' E 031°57'0 0.0
2014-Oct-19 23:33N 46°50' E 031°57'0 0.0
2014-Oct-19 22:32N 46°50' E 031°57'0 0.0
2014-Oct-19 21:32N 46°50' E 031°57'0 0.0
2014-Oct-19 20:32N 46°50' E 031°57'0 0.0
2014-Oct-19 19:32N 46°50' E 031°57'0 0.0
2014-Oct-19 18:32N 46°50' E 031°57'0 0.0
2014-Oct-19 17:32N 46°50' E 031°57'0 0.0
2014-Oct-19 16:32N 46°50' E 031°57'0 0.0
2014-Oct-19 15:32N 46°50' E 031°57'0 0.0
2014-Oct-19 14:32N 46°50' E 031°57'0 0.0
2014-Oct-19 13:32N 46°50' E 031°57'0 0.0
2014-Oct-19 12:32N 46°50' E 031°57'0 0.0
2014-Oct-19 11:32N 46°50' E 031°57'0 0.0
2014-Oct-19 10:29N 46°50' E 031°57'0 0.0
2014-Oct-19 09:32N 46°50' E 031°57'0 0.0
2014-Oct-19 08:32N 46°50' E 031°57'0 0.0
2014-Oct-19 07:32N 46°50' E 031°57'0 0.0
2014-Oct-19 06:29N 46°50' E 031°57'0 0.0
2014-Oct-19 05:32N 46°50' E 031°57'0 0.0
2014-Oct-19 04:32N 46°50' E 031°57'0 0.0
2014-Oct-19 03:32N 46°50' E 031°57'0 0.0
2014-Oct-19 02:32N 46°50' E 031°57'0 0.0
2014-Oct-19 01:32N 46°50' E 031°57'0 0.0
2014-Oct-19 00:32N 46°50' E 031°57'0 0.0
2014-Oct-18 23:32N 46°50' E 031°57'0 0.0
2014-Oct-18 22:29N 46°50' E 031°57'0 0.0
2014-Oct-18 21:32N 46°50' E 031°57'0 0.0
2014-Oct-18 20:32N 46°50' E 031°57'0 0.0
2014-Oct-18 19:32N 46°50' E 031°57'0 0.0
2014-Oct-18 18:32N 46°50' E 031°57'0 0.0
2014-Oct-18 17:32N 46°50' E 031°57'0 0.0
2014-Oct-18 16:32N 46°50' E 031°57'0 0.0
2014-Oct-18 15:32N 46°50' E 031°57'0 0.0
2014-Oct-18 14:29N 46°50' E 031°57'0 0.0
2014-Oct-18 13:32N 46°50' E 031°57'0 0.3
2014-Oct-18 12:33N 46°50' E 031°57'6 5.7
2014-Oct-18 11:33N 46°45' E 031°54'8 8.2
2014-Oct-18 10:33N 46°37' E 031°51'  
Track history (hours):
 
Tides and Currents Weather Stations Pressure Air Temp Water Temp Dewpoint Dewpoint Depression Visibility Wind Speed Wind Dir Waves Ship Positions

Suraya Y

Last reported at 2014-Oct-21 12:15 UTC. Time now 2014-Oct-23 05:50 UTC.
Position N 46°36' E 031°30'.

; draft 9.1 m.

Type: Cargo ship. MMSI: 667005066.

Date/timePositionNaut miles runAvg speedWind from/ knotsBaromVisibWave heightAir tempDewpointWater temp
2014-Oct-21 12:15N 46°36' E 031°30'10 9.2
2014-Oct-21 11:09N 46°36' E 031°44'6 9.8
2014-Oct-21 10:31N 46°37' E 031°53'8 8.3
2014-Oct-21 09:33N 46°45' E 031°54'5 5.1
2014-Oct-21 08:33N 46°50' E 031°57'0 0.0
2014-Oct-21 07:33N 46°50' E 031°57'0 0.0
2014-Oct-21 06:33N 46°50' E 031°57'0 0.0
2014-Oct-21 05:33N 46°50' E 031°57'0 0.0
2014-Oct-21 04:33N 46°50' E 031°57'0 0.0
2014-Oct-21 03:33N 46°50' E 031°57'0 0.0
2014-Oct-21 02:33N 46°50' E 031°57'0 0.0
2014-Oct-21 01:33N 46°50' E 031°57'0 0.0
2014-Oct-21 00:33N 46°50' E 031°57'0 0.0
2014-Oct-20 23:30N 46°50' E 031°57'0 0.0
2014-Oct-20 22:33N 46°50' E 031°57'0 0.0
2014-Oct-20 21:33N 46°50' E 031°57'0 0.0
2014-Oct-20 20:33N 46°50' E 031°57'0 0.0
2014-Oct-20 19:33N 46°50' E 031°57'0 0.0
2014-Oct-20 18:30N 46°50' E 031°57'0 0.0
2014-Oct-20 17:33N 46°50' E 031°57'0 0.0
2014-Oct-20 16:33N 46°50' E 031°57'0 0.0
2014-Oct-20 15:33N 46°50' E 031°57'0 0.0
2014-Oct-20 14:33N 46°50' E 031°57'0 0.0
2014-Oct-20 13:30N 46°50' E 031°57'0 0.0
2014-Oct-20 12:33N 46°50' E 031°57'0 0.0
2014-Oct-20 11:33N 46°50' E 031°57'0 0.0
2014-Oct-20 10:33N 46°50' E 031°57'0 0.0
2014-Oct-20 09:33N 46°50' E 031°57'0 0.0
2014-Oct-20 08:27N 46°50' E 031°57'0 0.0
2014-Oct-20 07:30N 46°50' E 031°57'0 0.0
2014-Oct-20 06:33N 46°50' E 031°57'0 0.0
2014-Oct-20 05:30N 46°50' E 031°57'0 0.0
2014-Oct-20 04:33N 46°50' E 031°57'0 0.0
2014-Oct-20 03:33N 46°50' E 031°57'0 0.0
2014-Oct-20 02:33N 46°50' E 031°57'0 0.0
2014-Oct-20 01:27N 46°50' E 031°57'0 0.0
2014-Oct-20 00:33N 46°50' E 031°57'0 0.0
2014-Oct-19 23:33N 46°50' E 031°57'0 0.0
2014-Oct-19 22:32N 46°50' E 031°57'0 0.0
2014-Oct-19 21:32N 46°50' E 031°57'0 0.0
2014-Oct-19 20:32N 46°50' E 031°57'0 0.0
2014-Oct-19 19:32N 46°50' E 031°57'0 0.0
2014-Oct-19 18:32N 46°50' E 031°57'0 0.0
2014-Oct-19 17:32N 46°50' E 031°57'0 0.0
2014-Oct-19 16:32N 46°50' E 031°57'0 0.0
2014-Oct-19 15:32N 46°50' E 031°57'0 0.0
2014-Oct-19 14:32N 46°50' E 031°57'0 0.0
2014-Oct-19 13:32N 46°50' E 031°57'0 0.0
2014-Oct-19 12:32N 46°50' E 031°57'0 0.0
2014-Oct-19 11:32N 46°50' E 031°57'0 0.0
2014-Oct-19 10:29N 46°50' E 031°57'0 0.0
2014-Oct-19 09:32N 46°50' E 031°57'0 0.0
2014-Oct-19 08:32N 46°50' E 031°57'0 0.0
2014-Oct-19 07:32N 46°50' E 031°57'0 0.0
2014-Oct-19 06:29N 46°50' E 031°57'0 0.0
2014-Oct-19 05:32N 46°50' E 031°57'0 0.0
2014-Oct-19 04:32N 46°50' E 031°57'0 0.0
2014-Oct-19 03:32N 46°50' E 031°57'0 0.0
2014-Oct-19 02:32N 46°50' E 031°57'0 0.0
2014-Oct-19 01:32N 46°50' E 031°57'0 0.0
2014-Oct-19 00:32N 46°50' E 031°57'0 0.0
2014-Oct-18 23:32N 46°50' E 031°57'0 0.0
2014-Oct-18 22:29N 46°50' E 031°57'0 0.0
2014-Oct-18 21:32N 46°50' E 031°57'0 0.0
2014-Oct-18 20:32N 46°50' E 031°57'0 0.0
2014-Oct-18 19:32N 46°50' E 031°57'0 0.0
2014-Oct-18 18:32N 46°50' E 031°57'0 0.0
2014-Oct-18 17:32N 46°50' E 031°57'0 0.0
2014-Oct-18 16:32N 46°50' E 031°57'0 0.0
2014-Oct-18 15:32N 46°50' E 031°57'0 0.0
2014-Oct-18 14:29N 46°50' E 031°57'0 0.0
2014-Oct-18 13:32N 46°50' E 031°57'0 0.3
2014-Oct-18 12:33N 46°50' E 031°57'6 5.7
2014-Oct-18 11:33N 46°45' E 031°54'8 8.2
2014-Oct-18 10:33N 46°37' E 031°51'  

Dump ship's entire track history